Juba International Airport


Codes: HSSJ/JUB
Name: Juba International Airport
City: Juba
Country: South Sudan
Elevation: 1513 ft.
Wikipedia:

Photos at Juba International Airport


   Photos courtesy of SpottingLog. You can add your own sightings and photos by signing up for a free trial today.



No photos found.

Weather at Juba International Airport


Time (UTC)DescriptionTempratureWindCloud coverageVisibilityPressureHumidity
15-Apr-2024 15:00Light Rain32°C4 mph, E81%10000m1006hPa46%
15-Apr-2024 18:00Light Rain31°C4 mph, S77%10000m1007hPa50%
15-Apr-2024 21:00Scattered Clouds29°C4 mph, S35%10000m1008hPa55%
16-Apr-2024 00:00Scattered Clouds27°C7 mph, S31%10000m1007hPa64%
16-Apr-2024 03:00Overcast Clouds26°C7 mph, S100%10000m1009hPa69%
16-Apr-2024 06:00Overcast Clouds29°C9 mph, S100%10000m1011hPa59%
16-Apr-2024 09:00Overcast Clouds35°C7 mph, S100%10000m1010hPa37%
16-Apr-2024 12:00Overcast Clouds38°C4 mph, SE100%10000m1005hPa30%
16-Apr-2024 15:00Light Rain34°C0 mph, NE100%10000m1005hPa41%
16-Apr-2024 18:00Overcast Clouds30°C2 mph, E100%10000m1007hPa51%
16-Apr-2024 21:00Light Rain27°C7 mph, S85%10000m1008hPa63%
17-Apr-2024 00:00Overcast Clouds26°C7 mph, S85%10000m1007hPa69%
17-Apr-2024 03:00Broken Clouds25°C7 mph, S73%10000m1008hPa73%
17-Apr-2024 06:00Broken Clouds29°C9 mph, S81%10000m1010hPa56%
17-Apr-2024 09:00Broken Clouds36°C9 mph, SE84%10000m1008hPa33%
17-Apr-2024 12:00Overcast Clouds39°C2 mph, SE92%10000m1004hPa26%
17-Apr-2024 15:00Broken Clouds36°C7 mph, S73%10000m1003hPa34%
17-Apr-2024 18:00Light Rain27°C9 mph, S79%10000m1008hPa69%
17-Apr-2024 21:00Light Rain26°C4 mph, S84%10000m1009hPa72%
18-Apr-2024 00:00Broken Clouds25°C7 mph, S80%10000m1007hPa72%
18-Apr-2024 03:00Scattered Clouds25°C9 mph, S41%10000m1008hPa71%
18-Apr-2024 06:00Scattered Clouds29°C9 mph, S50%10000m1010hPa57%
18-Apr-2024 09:00Broken Clouds36°C9 mph, SE82%10000m1008hPa36%
18-Apr-2024 12:00Broken Clouds39°C7 mph, S69%10000m1004hPa29%
18-Apr-2024 15:00Light Rain32°C9 mph, S84%10000m1004hPa51%
18-Apr-2024 18:00Light Rain28°C4 mph, S92%10000m1006hPa63%
18-Apr-2024 21:00Broken Clouds26°C9 mph, S81%10000m1008hPa68%
19-Apr-2024 00:00Broken Clouds25°C9 mph, S83%10000m1007hPa72%
19-Apr-2024 03:00Scattered Clouds24°C9 mph, S39%10000m1008hPa76%
19-Apr-2024 06:00Broken Clouds29°C13 mph, S56%10000m1008hPa57%
19-Apr-2024 09:00Scattered Clouds36°C11 mph, SE28%10000m1007hPa35%
19-Apr-2024 12:00Scattered Clouds39°C7 mph, S30%10000m1003hPa27%
19-Apr-2024 15:00Broken Clouds37°C4 mph, SW62%10000m1001hPa31%
19-Apr-2024 18:00Light Rain28°C9 mph, S75%10000m1006hPa65%
19-Apr-2024 21:00Light Rain25°C7 mph, S100%10000m1006hPa72%
20-Apr-2024 00:00Light Rain25°C7 mph, S97%10000m1005hPa73%
20-Apr-2024 03:00Overcast Clouds24°C9 mph, S97%10000m1006hPa73%
20-Apr-2024 06:00Overcast Clouds29°C11 mph, S98%10000m1008hPa61%
20-Apr-2024 09:00Overcast Clouds36°C9 mph, S87%10000m1006hPa36%
20-Apr-2024 12:00Overcast Clouds39°C7 mph, SW91%10000m1003hPa27%